createdAt,value
2022-09-14T00:01:33.399Z,99708.59
2022-09-14T00:04:03.348Z,99715.47
2022-09-14T00:06:30.853Z,99713.47
2022-09-14T00:08:59.061Z,99712.34
2022-09-14T00:11:28.033Z,99705.91
2022-09-14T00:13:56.207Z,99704.50
2022-09-14T00:16:34.565Z,99698.06
2022-09-14T00:19:06.126Z,99700.81
2022-09-14T00:21:34.931Z,99689.44
2022-09-14T00:24:01.555Z,99674.47
2022-09-14T00:26:28.139Z,99665.63
2022-09-14T00:28:56.961Z,99653.16
2022-09-14T00:31:27.250Z,99655.34
2022-09-14T00:33:53.953Z,99642.84
2022-09-14T00:36:26.382Z,99646.44
2022-09-14T00:38:58.338Z,99648.56
2022-09-14T00:41:27.108Z,99634.56
2022-09-14T00:44:07.356Z,99631.88
2022-09-14T00:46:48.382Z,99612.22
2022-09-14T00:49:22.987Z,99604.38
2022-09-14T00:52:15.414Z,99595.00
2022-09-14T00:54:48.889Z,99593.88
2022-09-14T00:57:21.309Z,99594.38
2022-09-14T00:59:51.664Z,99594.69
2022-09-14T01:02:19.515Z,99586.13
2022-09-14T01:04:46.948Z,99582.81
2022-09-14T01:07:43.186Z,99580.06
2022-09-14T01:10:24.697Z,99578.25
2022-09-14T01:13:03.334Z,99569.56
2022-09-14T01:15:38.804Z,99576.13
2022-09-14T01:18:15.459Z,99575.50
2022-09-14T01:20:56.358Z,99571.16
2022-09-14T01:23:37.737Z,99556.03
2022-09-14T01:26:28.186Z,99566.28
2022-09-14T01:29:15.458Z,99565.03
2022-09-14T01:32:02.399Z,99578.81
2022-09-14T01:34:47.219Z,99574.91
2022-09-14T01:37:21.880Z,99570.50
2022-09-14T01:39:54.088Z,99562.22
2022-09-14T01:42:26.503Z,99561.00
2022-09-14T01:44:59.643Z,99556.03
2022-09-14T01:47:31.748Z,99556.88
2022-09-14T01:50:10.507Z,99561.56
2022-09-14T01:53:17.136Z,99574.16
2022-09-14T01:55:49.331Z,99594.56
2022-09-14T01:58:26.189Z,99606.53
2022-09-14T02:00:57.125Z,99618.38
2022-09-14T02:03:32.611Z,99621.59
2022-09-14T02:06:11.475Z,99635.44
2022-09-14T02:08:38.548Z,99624.28
2022-09-14T02:11:05.032Z,99630.94
2022-09-14T02:13:31.816Z,99637.03
2022-09-14T02:15:58.425Z,99638.41
2022-09-14T02:18:24.904Z,99637.00
2022-09-14T02:20:57.904Z,99622.34
2022-09-14T02:23:24.414Z,99620.13
2022-09-14T02:25:50.812Z,99637.28
2022-09-14T02:28:19.735Z,99636.84
2022-09-14T02:30:51.968Z,99627.47
2022-09-14T02:33:32.936Z,99625.78
2022-09-14T02:36:09.269Z,99610.28
2022-09-14T02:39:06.834Z,99595.44
2022-09-14T02:41:46.187Z,99596.25
2022-09-14T02:44:35.379Z,99591.53
2022-09-14T02:47:46.890Z,99582.81
2022-09-14T02:50:33.893Z,99582.34
2022-09-14T02:53:27.035Z,99575.13
2022-09-14T02:55:59.336Z,99560.63
2022-09-14T02:58:43.908Z,99543.75
2022-09-14T03:01:13.950Z,99524.31
2022-09-14T03:03:40.618Z,99511.63
2022-09-14T03:06:07.169Z,99512.13
2022-09-14T03:08:38.386Z,99498.28
2022-09-14T03:11:05.499Z,99483.41
2022-09-14T03:13:32.291Z,99491.44
2022-09-14T03:15:59.005Z,99498.78
2022-09-14T03:18:25.404Z,99487.13
2022-09-14T03:20:51.860Z,99495.09
2022-09-14T03:23:18.209Z,99494.00
2022-09-14T03:25:45.185Z,99478.78
2022-09-14T03:28:16.818Z,99480.47
2022-09-14T03:30:43.262Z,99495.34
2022-09-14T03:33:09.719Z,99497.44
2022-09-14T03:35:36.091Z,99497.22
2022-09-14T03:38:04.860Z,99495.78
2022-09-14T03:40:31.308Z,99498.50
2022-09-14T03:42:58.098Z,99503.41
2022-09-14T03:45:24.751Z,99508.91
2022-09-14T03:47:51.240Z,99518.63
2022-09-14T03:50:19.061Z,99535.47
2022-09-14T03:52:48.196Z,99523.63
2022-09-14T03:55:15.126Z,99527.22
2022-09-14T03:57:43.777Z,99526.63
2022-09-14T04:00:11.402Z,99521.09
2022-09-14T04:02:38.396Z,99510.06
2022-09-14T04:05:05.529Z,99517.84
2022-09-14T04:07:31.939Z,99512.06
2022-09-14T04:09:58.516Z,99493.84
2022-09-14T04:12:24.969Z,99499.66
2022-09-14T04:14:51.405Z,99509.00
2022-09-14T04:17:17.970Z,99517.78
2022-09-14T04:19:44.392Z,99521.06
2022-09-14T04:22:10.838Z,99509.75
2022-09-14T04:24:37.334Z,99507.28
2022-09-14T04:27:03.854Z,99509.91
2022-09-14T04:29:30.668Z,99505.25
2022-09-14T04:31:57.511Z,99502.72
2022-09-14T04:34:24.012Z,99504.09
2022-09-14T04:36:50.499Z,99504.31
2022-09-14T04:39:17.132Z,99494.41
2022-09-14T04:41:43.604Z,99489.16
2022-09-14T04:44:10.593Z,99493.25
2022-09-14T04:46:46.089Z,99487.97
2022-09-14T04:49:14.740Z,99486.06
2022-09-14T04:51:41.209Z,99479.72
2022-09-14T04:54:07.723Z,99481.91
2022-09-14T04:56:37.060Z,99488.75
2022-09-14T04:59:05.574Z,99491.78
2022-09-14T05:01:38.709Z,99498.34
2022-09-14T05:04:07.033Z,99496.16
2022-09-14T05:06:35.712Z,99505.88
2022-09-14T05:09:04.910Z,99506.13
2022-09-14T05:11:36.111Z,99495.94
2022-09-14T05:14:03.297Z,99489.34
2022-09-14T05:16:36.679Z,99475.03
2022-09-14T05:19:06.445Z,99478.03
2022-09-14T05:21:34.801Z,99489.66
2022-09-14T05:24:08.322Z,99495.09
2022-09-14T05:26:34.724Z,99524.66
2022-09-14T05:29:02.548Z,99540.09
2022-09-14T05:31:30.402Z,99527.41
2022-09-14T05:33:57.884Z,99527.97
2022-09-14T05:36:24.977Z,99523.81
2022-09-14T05:38:52.018Z,99521.06
2022-09-14T05:41:18.425Z,99512.53
2022-09-14T05:43:47.207Z,99516.72
2022-09-14T05:46:16.502Z,99510.94
2022-09-14T05:48:43.833Z,99508.75
2022-09-14T05:51:21.545Z,99503.50
2022-09-14T05:53:58.413Z,99503.25
2022-09-14T05:56:27.684Z,99495.81
2022-09-14T05:58:54.757Z,99493.38
2022-09-14T06:01:22.551Z,99502.72
2022-09-14T06:03:50.366Z,99492.81
2022-09-14T06:06:21.032Z,99487.31
2022-09-14T06:08:52.331Z,99494.22
2022-09-14T06:11:21.639Z,99490.38
2022-09-14T06:13:49.510Z,99496.69
2022-09-14T06:16:18.579Z,99504.72
2022-09-14T06:18:46.113Z,99510.88
2022-09-14T06:21:15.210Z,99509.50
2022-09-14T06:23:44.540Z,99512.16
2022-09-14T06:26:16.135Z,99507.72
2022-09-14T06:28:42.877Z,99507.47
2022-09-14T06:31:12.581Z,99512.16
2022-09-14T06:33:43.782Z,99520.44
2022-09-14T06:36:15.576Z,99519.59
2022-09-14T06:38:42.690Z,99513.00
2022-09-14T06:41:12.192Z,99514.06
2022-09-14T06:43:40.593Z,99501.25
2022-09-14T06:46:20.709Z,99510.91
2022-09-14T06:48:59.722Z,99506.31
2022-09-14T06:51:27.908Z,99508.03
2022-09-14T06:53:56.192Z,99503.34
2022-09-14T06:56:22.616Z,99505.34
2022-09-14T06:58:52.169Z,99493.81
2022-09-14T07:01:19.901Z,99496.56
2022-09-14T07:03:47.155Z,99508.66
2022-09-14T07:06:25.214Z,99500.19
2022-09-14T07:08:53.040Z,99510.09
2022-09-14T07:11:25.629Z,99507.69
2022-09-14T07:13:54.709Z,99505.88
2022-09-14T07:16:21.843Z,99513.41
2022-09-14T07:18:48.293Z,99511.84
2022-09-14T07:21:18.012Z,99515.69
2022-09-14T07:23:45.941Z,99522.06
2022-09-14T07:26:16.196Z,99517.94
2022-09-14T07:28:44.342Z,99522.25
2022-09-14T07:31:35.966Z,99523.09
2022-09-14T07:34:04.574Z,99516.84
2022-09-14T07:36:35.065Z,99512.69
2022-09-14T07:39:04.475Z,99503.63
2022-09-14T07:41:32.923Z,99508.44
2022-09-14T07:44:03.317Z,99514.31
2022-09-14T07:47:07.267Z,99505.19
2022-09-14T07:50:11.721Z,99508.06
2022-09-14T07:53:15.512Z,99515.78
2022-09-14T07:56:20.424Z,99522.50
2022-09-14T07:59:36.519Z,99520.72
2022-09-14T08:02:06.955Z,99522.53
2022-09-14T08:04:39.253Z,99531.91
2022-09-14T08:07:09.068Z,99540.34
2022-09-14T08:09:35.470Z,99538.75
2022-09-14T08:12:02.458Z,99542.91
2022-09-14T08:14:28.892Z,99544.88
2022-09-14T08:16:55.623Z,99537.47
2022-09-14T08:19:22.092Z,99539.78
2022-09-14T08:21:48.721Z,99547.22
2022-09-14T08:24:18.143Z,99566.50
2022-09-14T08:26:47.753Z,99565.88
2022-09-14T08:29:15.415Z,99579.19
2022-09-14T08:31:44.203Z,99582.56
2022-09-14T08:34:12.310Z,99582.09
2022-09-14T08:36:40.833Z,99578.47
2022-09-14T08:39:10.021Z,99588.09
2022-09-14T08:41:55.988Z,99590.03
2022-09-14T08:44:37.139Z,99590.31
2022-09-14T08:47:12.819Z,99590.91
2022-09-14T08:49:45.861Z,99584.31
2022-09-14T08:52:22.903Z,99581.97
2022-09-14T08:54:55.502Z,99562.06
2022-09-14T08:57:53.253Z,99571.31
2022-09-14T09:00:24.361Z,99575.38
2022-09-14T09:03:09.425Z,99577.94
2022-09-14T09:06:00.617Z,99586.53
2022-09-14T09:08:37.155Z,99592.28
2022-09-14T09:11:07.200Z,99588.13
2022-09-14T09:13:37.896Z,99592.88
2022-09-14T09:16:09.177Z,99600.63
2022-09-14T09:18:42.478Z,99598.41
2022-09-14T09:21:16.524Z,99595.13
2022-09-14T09:23:43.920Z,99581.63
2022-09-14T09:26:22.512Z,99584.63
2022-09-14T09:28:52.680Z,99584.31
2022-09-14T09:31:34.752Z,99582.53
2022-09-14T09:34:04.050Z,99586.97
2022-09-14T09:36:38.284Z,99576.31
2022-09-14T09:39:07.546Z,99563.88
2022-09-14T09:41:44.451Z,99551.44
2022-09-14T09:44:11.603Z,99548.66
2022-09-14T09:46:42.349Z,99535.38
2022-09-14T09:49:18.982Z,99534.50
2022-09-14T09:51:47.983Z,99535.34
2022-09-14T09:54:14.274Z,99530.63
2022-09-14T09:56:53.622Z,99526.41
2022-09-14T09:59:40.945Z,99519.69
2022-09-14T10:02:28.143Z,99526.88
2022-09-14T10:05:09.733Z,99518.47
2022-09-14T10:08:02.383Z,99506.59
2022-09-14T10:10:34.730Z,99503.91
2022-09-14T10:13:03.444Z,99505.81
2022-09-14T10:15:32.060Z,99504.94
2022-09-14T10:18:10.347Z,99495.75
2022-09-14T10:20:39.387Z,99488.00
2022-09-14T10:23:17.822Z,99489.69
2022-09-14T10:25:51.510Z,99482.47
2022-09-14T10:28:29.727Z,99479.44
2022-09-14T10:31:00.618Z,99476.03
2022-09-14T10:33:28.028Z,99467.72
2022-09-14T10:36:13.925Z,99467.97
2022-09-14T10:39:07.586Z,99462.16
2022-09-14T10:42:16.593Z,99462.16
2022-09-14T10:44:55.090Z,99451.06
2022-09-14T10:47:45.841Z,99444.31
2022-09-14T10:50:32.333Z,99433.78
2022-09-14T10:53:23.007Z,99413.78
2022-09-14T10:56:15.583Z,99416.19
2022-09-14T10:59:17.733Z,99409.78
2022-09-14T11:02:21.295Z,99406.88
2022-09-14T11:05:06.598Z,99403.97
2022-09-14T11:08:05.678Z,99402.81
2022-09-14T11:11:11.523Z,99395.44
2022-09-14T11:14:02.505Z,99389.94
2022-09-14T11:16:42.103Z,99397.50
2022-09-14T11:19:30.973Z,99388.63
2022-09-14T11:22:12.817Z,99388.28
2022-09-14T11:24:49.049Z,99389.66
2022-09-14T11:27:21.331Z,99390.72
2022-09-14T11:30:03.632Z,99390.06
2022-09-14T11:32:42.589Z,99382.59
2022-09-14T11:35:18.178Z,99386.47
2022-09-14T11:38:10.950Z,99377.59
2022-09-14T11:40:46.100Z,99377.59
2022-09-14T11:43:19.354Z,99373.56
2022-09-14T11:45:53.045Z,99379.81
2022-09-14T11:48:42.363Z,99386.03
2022-09-14T11:51:19.197Z,99384.25
2022-09-14T11:53:46.644Z,99382.69
2022-09-14T11:56:26.446Z,99381.72
2022-09-14T11:58:55.371Z,99382.47
2022-09-14T12:01:45.199Z,99380.56
2022-09-14T12:04:14.430Z,99372.72
2022-09-14T12:06:40.872Z,99372.13
2022-09-14T12:09:31.961Z,99372.53
2022-09-14T12:11:59.691Z,99381.00
2022-09-14T12:14:30.079Z,99383.69
2022-09-14T12:17:37.857Z,99395.38
2022-09-14T12:20:43.363Z,99400.28
2022-09-14T12:23:31.882Z,99395.34
2022-09-14T12:26:12.583Z,99395.16
2022-09-14T12:28:50.564Z,99409.91
2022-09-14T12:31:57.907Z,99407.50
2022-09-14T12:34:31.970Z,99416.16
2022-09-14T12:37:29.720Z,99425.94
2022-09-14T12:40:34.024Z,99428.16
2022-09-14T12:43:34.791Z,99428.75
2022-09-14T12:46:08.469Z,99418.78
2022-09-14T12:48:55.455Z,99428.81
2022-09-14T12:51:34.806Z,99426.06
2022-09-14T12:54:23.020Z,99427.75
2022-09-14T12:57:00.268Z,99422.78
2022-09-14T12:59:36.094Z,99409.47
2022-09-14T13:02:22.702Z,99396.94
2022-09-14T13:04:53.696Z,99377.84
2022-09-14T13:07:22.842Z,99370.34
2022-09-14T13:09:57.592Z,99371.19
2022-09-14T13:12:34.432Z,99377.50
2022-09-14T13:15:05.457Z,99381.69
2022-09-14T13:17:31.771Z,99380.34
2022-09-14T13:20:05.792Z,99381.19
2022-09-14T13:22:33.276Z,99385.66
2022-09-14T13:25:01.450Z,99383.22
2022-09-14T13:27:30.356Z,99393.22
2022-09-14T13:30:09.760Z,99401.53
2022-09-14T13:32:44.051Z,99411.34
2022-09-14T13:35:20.576Z,99415.59
2022-09-14T13:37:48.448Z,99424.22
2022-09-14T13:40:22.398Z,99420.34
2022-09-14T13:42:48.802Z,99425.03
2022-09-14T13:45:15.341Z,99423.06
2022-09-14T13:47:42.290Z,99430.25
2022-09-14T13:50:09.088Z,99430.25
2022-09-14T13:55:45.238Z,99438.53
2022-09-14T13:58:11.531Z,99434.66
2022-09-14T14:00:51.205Z,99431.88
2022-09-14T14:03:30.176Z,99434.66
2022-09-14T14:06:00.176Z,99426.91
2022-09-14T14:08:37.179Z,99431.91
2022-09-14T14:11:11.973Z,99435.47
2022-09-14T14:13:38.669Z,99421.66
2022-09-14T14:16:21.228Z,99423.59
2022-09-14T14:18:50.877Z,99419.72
2022-09-14T14:21:32.477Z,99418.06
2022-09-14T14:24:20.347Z,99402.56
2022-09-14T14:26:49.092Z,99405.88
2022-09-14T14:29:16.386Z,99419.16
2022-09-14T14:31:43.269Z,99418.59
2022-09-14T14:34:25.937Z,99415.81
2022-09-14T14:36:52.485Z,99405.59
2022-09-14T14:39:24.310Z,99399.50
2022-09-14T14:41:51.555Z,99382.59
2022-09-14T14:44:24.560Z,99388.41
2022-09-14T14:46:51.482Z,99359.38
2022-09-14T14:49:20.151Z,99355.22
2022-09-14T14:51:47.877Z,99367.34
2022-09-14T14:54:18.545Z,99368.75
2022-09-14T14:56:47.176Z,99359.06
2022-09-14T14:59:25.915Z,99367.09
2022-09-14T15:01:54.006Z,99367.63
2022-09-14T15:04:21.328Z,99367.63
2022-09-14T15:06:48.203Z,99352.69
2022-09-14T15:09:22.193Z,99362.06
2022-09-14T15:11:49.577Z,99367.03
2022-09-14T15:14:18.715Z,99368.69
2022-09-14T15:16:46.085Z,99371.47
2022-09-14T15:19:12.904Z,99356.81
2022-09-14T15:21:41.290Z,99337.44
2022-09-14T15:24:08.350Z,99335.50
2022-09-14T15:26:35.174Z,99316.97
2022-09-14T15:29:06.758Z,99298.69
2022-09-14T15:31:33.333Z,99315.56
2022-09-14T15:33:59.978Z,99313.91
2022-09-14T15:36:35.215Z,99316.34
2022-09-14T15:39:06.923Z,99326.31
2022-09-14T15:41:33.468Z,99328.25
2022-09-14T15:44:00.183Z,99318.91
2022-09-14T15:46:28.725Z,99323.81
2022-09-14T15:48:55.072Z,99332.16
2022-09-14T15:51:22.703Z,99330.25
2022-09-14T15:53:49.705Z,99332.44
2022-09-14T15:56:21.580Z,99322.78
2022-09-14T15:58:50.348Z,99327.22
2022-09-14T16:01:20.691Z,99315.34
2022-09-14T16:03:47.119Z,99311.19
2022-09-14T16:06:14.286Z,99315.63
2022-09-14T16:08:43.515Z,99313.97
2022-09-14T16:11:09.982Z,99322.81
2022-09-14T16:13:36.632Z,99324.44
2022-09-14T16:16:07.290Z,99327.25
2022-09-14T16:18:34.289Z,99321.72
2022-09-14T16:21:09.247Z,99333.31
2022-09-14T16:23:38.735Z,99348.81
2022-09-14T16:26:16.815Z,99359.34
2022-09-14T16:28:50.567Z,99375.63
2022-09-14T16:31:20.378Z,99381.75
2022-09-14T16:33:51.388Z,99396.97
2022-09-14T16:36:26.048Z,99399.19
2022-09-14T16:38:55.379Z,99395.88
2022-09-14T16:41:21.755Z,99392.53
2022-09-14T16:43:48.150Z,99396.97
2022-09-14T16:46:16.204Z,99387.56
2022-09-14T16:48:45.520Z,99384.28
2022-09-14T16:51:13.987Z,99377.59
2022-09-14T16:53:45.421Z,99369.31
2022-09-14T16:56:20.702Z,99371.84
2022-09-14T16:58:48.878Z,99379.31
2022-09-14T17:01:17.095Z,99375.41
2022-09-14T17:03:45.669Z,99368.75
2022-09-14T17:06:18.260Z,99370.72
2022-09-14T17:08:45.546Z,99376.50
2022-09-14T17:11:18.770Z,99383.44
2022-09-14T17:13:46.386Z,99375.41
2022-09-14T17:16:18.635Z,99368.75
2022-09-14T17:18:48.742Z,99391.44
2022-09-14T17:21:18.404Z,99390.88
2022-09-14T17:23:44.982Z,99400.81
2022-09-14T17:26:13.219Z,99383.41
2022-09-14T17:28:44.464Z,99376.44
2022-09-14T17:31:12.972Z,99367.34
2022-09-14T17:33:39.728Z,99359.28
2022-09-14T17:36:06.842Z,99367.31
2022-09-14T17:38:37.276Z,99359.25
2022-09-14T17:41:06.079Z,99371.97
2022-09-14T17:43:33.670Z,99360.91
2022-09-14T17:46:00.547Z,99356.22
2022-09-14T17:48:28.018Z,99361.75
2022-09-14T17:50:55.254Z,99364.19
2022-09-14T17:53:21.749Z,99363.06
2022-09-14T17:55:48.700Z,99369.44
2022-09-14T17:58:19.583Z,99368.34
2022-09-14T18:00:46.370Z,99378.28
2022-09-14T18:03:13.000Z,99382.41
2022-09-14T18:05:39.451Z,99392.34
2022-09-14T18:08:05.827Z,99405.34
2022-09-14T18:10:35.158Z,99415.00
2022-09-14T18:13:01.635Z,99419.44
2022-09-14T18:15:31.014Z,99422.78
2022-09-14T18:17:57.761Z,99411.75
2022-09-14T18:20:24.245Z,99412.28
2022-09-14T18:22:50.697Z,99418.09
2022-09-14T18:25:17.255Z,99423.63
2022-09-14T18:27:43.716Z,99433.31
2022-09-14T18:30:10.754Z,99432.72
2022-09-14T18:32:37.342Z,99436.06
2022-09-14T18:35:04.241Z,99438.53
2022-09-14T18:37:30.870Z,99439.94
2022-09-14T18:39:59.638Z,99445.75
2022-09-14T18:42:26.013Z,99443.50
2022-09-14T18:44:56.239Z,99444.63
2022-09-14T18:47:22.703Z,99436.84
2022-09-14T18:49:49.992Z,99432.16
2022-09-14T18:52:18.217Z,99433.78
2022-09-14T18:54:44.745Z,99437.97
2022-09-14T18:57:11.250Z,99437.97
2022-09-14T18:59:37.625Z,99444.31
2022-09-14T19:02:04.163Z,99446.25
2022-09-14T19:04:30.735Z,99446.50
2022-09-14T19:07:02.040Z,99447.34
2022-09-14T19:09:28.840Z,99441.56
2022-09-14T19:11:55.336Z,99440.44
2022-09-14T19:14:22.135Z,99451.50
2022-09-14T19:16:50.575Z,99444.59
2022-09-14T19:19:26.159Z,99444.84
2022-09-14T19:21:54.216Z,99448.72
2022-09-14T19:24:20.735Z,99437.09
2022-09-14T19:26:50.164Z,99435.41
2022-09-14T19:29:20.325Z,99434.03
2022-09-14T19:31:50.957Z,99442.03
2022-09-14T19:34:19.209Z,99443.69
2022-09-14T19:36:46.488Z,99443.13
2022-09-14T19:39:12.873Z,99434.81
2022-09-14T19:41:39.336Z,99438.97
2022-09-14T19:44:07.593Z,99447.50
2022-09-14T19:46:36.331Z,99442.53
2022-09-14T19:49:02.824Z,99432.56
2022-09-14T19:51:30.741Z,99430.34
2022-09-14T19:53:59.397Z,99441.09
2022-09-14T19:56:28.791Z,99439.72
2022-09-14T19:58:58.074Z,99437.47
2022-09-14T20:01:26.523Z,99445.47
2022-09-14T20:03:53.782Z,99443.22
2022-09-14T20:06:35.335Z,99433.00
2022-09-14T20:09:14.695Z,99432.41
2022-09-14T20:11:43.006Z,99434.06
2022-09-14T20:14:15.314Z,99431.84
2022-09-14T20:16:47.618Z,99466.16
2022-09-14T20:19:18.163Z,99493.56
2022-09-14T20:21:46.122Z,99475.56
2022-09-14T20:24:17.115Z,99486.31
2022-09-14T20:26:50.365Z,99499.28
2022-09-14T20:29:18.130Z,99489.88
2022-09-14T20:31:45.860Z,99499.53
2022-09-14T20:34:13.312Z,99487.88
2022-09-14T20:36:42.340Z,99492.22
2022-09-14T20:39:09.263Z,99500.19
2022-09-14T20:41:36.134Z,99498.25
2022-09-14T20:44:05.945Z,99496.25
2022-09-14T20:46:39.286Z,99491.25
2022-09-14T20:49:14.177Z,99486.22
2022-09-14T20:51:41.616Z,99482.91
2022-09-14T20:54:11.262Z,99474.84
2022-09-14T20:56:38.116Z,99471.25
2022-09-14T20:59:07.139Z,99476.44
2022-09-14T21:01:35.393Z,99469.00
2022-09-14T21:04:09.020Z,99458.47
2022-09-14T21:06:37.852Z,99467.28
2022-09-14T21:09:08.139Z,99465.88
2022-09-14T21:11:34.878Z,99470.00
2022-09-14T21:14:25.401Z,99478.53
2022-09-14T21:16:56.839Z,99485.41
2022-09-14T21:19:26.970Z,99491.78
2022-09-14T21:21:53.824Z,99485.03
2022-09-14T21:24:21.685Z,99488.31
2022-09-14T21:26:48.177Z,99472.84
2022-09-14T21:29:22.838Z,99477.53
2022-09-14T21:31:49.686Z,99479.13
2022-09-14T21:34:17.152Z,99472.53
2022-09-14T21:36:46.828Z,99474.47
2022-09-14T21:39:31.407Z,99484.97
2022-09-14T21:42:00.921Z,99479.44
2022-09-14T21:44:32.998Z,99479.22
2022-09-14T21:47:00.532Z,99483.38
2022-09-14T21:49:27.243Z,99478.69
2022-09-14T21:51:56.174Z,99480.28
2022-09-14T21:54:22.756Z,99472.91
2022-09-14T21:56:49.389Z,99476.50
2022-09-14T21:59:19.059Z,99476.19
2022-09-14T22:01:50.668Z,99458.50
2022-09-14T22:04:19.924Z,99457.66
2022-09-14T22:06:46.841Z,99465.88
2022-09-14T22:09:15.230Z,99459.81
2022-09-14T22:11:41.692Z,99458.75
2022-09-14T22:14:13.159Z,99458.44
2022-09-14T22:16:40.663Z,99457.59
2022-09-14T22:19:12.730Z,99446.00
2022-09-14T22:21:39.537Z,99449.00
2022-09-14T22:24:10.547Z,99437.59
2022-09-14T22:26:42.292Z,99443.94
2022-09-14T22:29:09.531Z,99447.41
2022-09-14T22:31:38.487Z,99452.06
2022-09-14T22:34:05.286Z,99450.22
2022-09-14T22:36:32.289Z,99456.81
2022-09-14T22:39:00.276Z,99458.44
2022-09-14T22:41:29.867Z,99459.91
2022-09-14T22:43:56.804Z,99467.56
2022-09-14T22:46:24.281Z,99475.28
2022-09-14T22:48:51.977Z,99476.34
2022-09-14T22:51:22.365Z,99475.81
2022-09-14T22:53:49.191Z,99472.22
2022-09-14T22:56:18.447Z,99474.16
2022-09-14T22:58:46.356Z,99473.59
2022-09-14T23:01:16.080Z,99486.84
2022-09-14T23:03:42.867Z,99485.44
2022-09-14T23:06:10.125Z,99486.25
2022-09-14T23:08:37.573Z,99489.03
2022-09-14T23:11:10.670Z,99490.69
2022-09-14T23:13:39.129Z,99495.38
2022-09-14T23:16:15.104Z,99482.34
2022-09-14T23:18:42.183Z,99482.09
2022-09-14T23:21:11.575Z,99481.53
2022-09-14T23:23:38.415Z,99479.59
2022-09-14T23:26:07.912Z,99475.69
2022-09-14T23:28:34.945Z,99483.72
2022-09-14T23:31:01.847Z,99482.34
2022-09-14T23:33:29.552Z,99488.19
2022-09-14T23:35:56.289Z,99486.84
2022-09-14T23:38:23.575Z,99478.59
2022-09-14T23:40:50.555Z,99474.47
2022-09-14T23:43:18.346Z,99483.56
2022-09-14T23:45:45.980Z,99483.81
2022-09-14T23:48:13.897Z,99467.03
2022-09-14T23:50:40.501Z,99477.28
2022-09-14T23:53:07.324Z,99471.75
2022-09-14T23:55:36.289Z,99471.81
2022-09-14T23:58:03.528Z,99467.13
